Share

Alum Bridge, WV

10:20 PM EDT on April 23, 2014 (GMT -0400)
Quirky Towers, Vadis (KWVALUMB2) Elev 837 ft | 39.04 °N, 80.71 °W | Change Station
Active Advisory: Freeze Warning

Current weather conditions updated 26 seconds ago

Clear
Clear
40.6 °F
Feels Like 41 °F
N
0.0
Wind Variable Wind from SE
Gusts 2.2 mph
Sunrise 6:34 AM
Sunset 8:07 PM
Moon Waning Crescent

Tomorrow is forecast to be nearly the same temperature as today.

Pressure 30.08 in
Visibility 10.0 miles
Clouds Clear
Windchill 41 °F
Dew Point 35 °F
Humidity 80%
Rainfall 0.00 in
Snow Depth Not available.
UV 0 out of 16
Pollen 9.90 out of 12
Air Quality Not available.
Flu Activity Sporadic
METAR KW22 240155Z AUTO 35005KT 10SM CLR 07/M01 A3008 RMK AO2

More Conditions Fewer Conditions

Pressure 30.08 in
Visibility 10.0 miles
Clouds Clear
Windchill 41 °F
Dew Point 35 °F
Humidity 80%
Rainfall 0.00 in
Snow Depth Not available.
UV 0 out of 16
Pollen 9.90 out of 12
Air Quality Not available.
Flu Activity Sporadic
METAR KW22 240155Z AUTO 35005KT 10SM CLR 07/M01 A3008 RMK AO2

More Conditions Fewer Conditions

10-Day Weather Forecast

Almanac

Astronomy

Apr. 23, 2014 Rise Set
Actual Time 6:34 AM EDT 8:07 PM EDT
Civil Twilight 6:06 AM EDT 8:36 PM EDT
Nautical Twilight 5:32 AM EDT 9:10 PM EDT
Astronomical Twilight 4:56 AM EDT 9:46 PM EDT
Moon 3:02 AM EDT (4/23) 2:17 PM EDT (4/23)
Length of Visible Light 14h 29m
Length of Day
13h 32m
Tomorrow will be 2m 19s longer.
Waning Crescent, 30% of the Moon is Illuminated
Today
Waning Crescent
Apr 29
New
May 6
First Quarter
May 14
Full
May 21
Last Quarter

Today's Extremes

State Highs State Lows

Community

  • Nestled In
    Nestled In
  • Stunning Sunrise
    Stunning Sunrise
  • spring flowers
    spring flowers
  • Earth Day Spectrum Ove' Blue
    Earth Day Spectrum Ove' Blue
  • BARN B&W
    BARN B&W

WunderPhotos

Upload Photos

1,704,514 photos uploaded!

WunderBlogs® & News

Nearby

Snow Depth

Station Depth Elevation
No new snow has been reported.

Coastal Water Temperatures

Place Temperature
No Stations Reporting

Earthquake Activity

City Distance Mag. Time & Date
No recent earthquake activity has been reported nearby.
Minimum magnitude displayed is 2.5.

Nearby Weather Stations

Station Location Temp. Windchill Dew Point Humidity Wind Precip. Elev Updated Type
Quirky Towers, Vadis, Alum Bridge, WV 40.6 °F 41 °F 35 °F 80% SE  at  0.0 mph 0.00 in / hr 837 ft 10:20 PM EDT Normal
W8PY @ Harmony, West Union, WV 38.7 °F 39 °F 35 °F 86% WSW  at  0.0 mph 0.00 in / hr 852 ft 10:09 PM EDT Normal
Brooklyn Point, Glenville, WV 43.7 °F 44 °F 36 °F 75% North  at  0.0 mph - / hr 732 ft 9:05 PM CDT Normal
Marshville, Salem, WV 37.2 °F 37 °F 32 °F 81% WSW  at  0.0 mph - / hr 1122 ft 10:10 PM EDT Normal

Show More Stations Show Fewer Stations

What do you think?

We're not finished. Please let us know what you like, what you don't like, and what you are still missing.